createdAt,value
2022-07-28T00:01:14.713Z,1.52
2022-07-28T00:03:48.795Z,1.30
2022-07-28T00:06:17.623Z,1.33
2022-07-28T00:08:45.772Z,1.50
2022-07-28T00:11:14.483Z,1.42
2022-07-28T00:13:43.197Z,1.00
2022-07-28T00:16:12.860Z,1.00
2022-07-28T00:18:41.790Z,1.60
2022-07-28T00:21:10.002Z,1.15
2022-07-28T00:23:39.034Z,2.17
2022-07-28T00:26:09.207Z,1.73
2022-07-28T00:28:37.835Z,1.48
2022-07-28T00:31:09.905Z,1.38
2022-07-28T00:33:43.302Z,1.40
2022-07-28T00:36:13.656Z,1.42
2022-07-28T00:38:43.933Z,1.23
2022-07-28T00:41:13.268Z,1.40
2022-07-28T00:43:44.342Z,1.40
2022-07-28T00:46:14.321Z,1.20
2022-07-28T00:48:47.745Z,1.13
2022-07-28T00:51:17.599Z,1.60
2022-07-28T00:53:47.699Z,1.50
2022-07-28T00:56:16.560Z,1.50
2022-07-28T00:58:44.859Z,1.15
2022-07-28T01:01:17.656Z,1.30
2022-07-28T01:03:53.182Z,1.40
2022-07-28T01:06:41.380Z,1.42
2022-07-28T01:09:26.908Z,1.67
2022-07-28T01:12:06.036Z,1.60
2022-07-28T01:14:41.328Z,1.20
2022-07-28T01:17:19.765Z,1.30
2022-07-28T01:20:05.893Z,1.73
2022-07-28T01:22:41.255Z,1.52
2022-07-28T01:25:25.147Z,1.63
2022-07-28T01:28:17.254Z,1.20
2022-07-28T01:30:51.439Z,0.90
2022-07-28T01:33:26.444Z,1.40
2022-07-28T01:36:02.971Z,1.10
2022-07-28T01:38:35.702Z,1.50
2022-07-28T01:41:05.203Z,1.67
2022-07-28T01:43:38.205Z,1.50
2022-07-28T01:46:10.123Z,1.50
2022-07-28T01:48:41.715Z,1.30
2022-07-28T01:51:12.589Z,1.55
2022-07-28T01:53:43.257Z,1.40
2022-07-28T01:56:12.815Z,1.05
2022-07-28T01:58:44.504Z,1.60
2022-07-28T02:01:17.565Z,1.33
2022-07-28T02:03:49.470Z,1.42
2022-07-28T02:06:20.994Z,1.48
2022-07-28T02:08:51.839Z,1.40
2022-07-28T02:11:38.388Z,1.55
2022-07-28T02:14:09.866Z,1.55
2022-07-28T02:16:45.599Z,2.00
2022-07-28T02:19:17.280Z,1.45
2022-07-28T02:21:47.910Z,1.45
2022-07-28T02:24:20.584Z,1.40
2022-07-28T02:26:56.951Z,1.55
2022-07-28T02:29:49.887Z,1.10
2022-07-28T02:32:26.940Z,1.10
2022-07-28T02:35:04.679Z,1.50
2022-07-28T02:37:39.903Z,1.33
2022-07-28T02:40:16.125Z,1.45
2022-07-28T02:42:49.873Z,1.30
2022-07-28T02:45:26.667Z,1.40
2022-07-28T02:48:02.855Z,1.60
2022-07-28T02:50:31.873Z,1.40
2022-07-28T02:53:14.932Z,1.30
2022-07-28T02:55:48.720Z,1.10
2022-07-28T02:58:21.413Z,1.25
2022-07-28T03:00:51.280Z,1.73
2022-07-28T03:03:23.573Z,2.15
2022-07-28T03:05:52.408Z,1.30
2022-07-28T03:08:20.983Z,1.67
2022-07-28T03:10:49.593Z,1.33
2022-07-28T03:13:17.725Z,1.60
2022-07-28T03:15:46.184Z,1.35
2022-07-28T03:18:14.349Z,1.23
2022-07-28T03:20:44.120Z,1.40
2022-07-28T03:23:12.602Z,1.40
2022-07-28T03:25:49.996Z,1.13
2022-07-28T03:28:22.328Z,1.67
2022-07-28T03:30:58.724Z,1.40
2022-07-28T03:33:27.596Z,1.83
2022-07-28T03:36:04.110Z,1.70
2022-07-28T03:38:44.200Z,1.03
2022-07-28T03:41:14.428Z,1.20
2022-07-28T03:43:44.076Z,1.50
2022-07-28T03:46:14.322Z,1.90
2022-07-28T03:48:42.843Z,1.80
2022-07-28T03:51:12.806Z,1.50
2022-07-28T03:53:43.249Z,1.73
2022-07-28T03:56:11.432Z,1.40
2022-07-28T03:58:39.840Z,1.60
2022-07-28T04:01:08.486Z,1.38
2022-07-28T04:03:43.586Z,1.43
2022-07-28T04:06:14.213Z,1.20
2022-07-28T04:08:43.422Z,1.70
2022-07-28T04:11:12.037Z,1.70
2022-07-28T04:13:40.643Z,1.83
2022-07-28T04:16:09.105Z,1.30
2022-07-28T04:18:37.530Z,1.53
2022-07-28T04:21:08.333Z,1.33
2022-07-28T04:23:37.882Z,1.50
2022-07-28T04:26:07.053Z,1.58
2022-07-28T04:28:35.395Z,1.50
2022-07-28T04:31:03.591Z,2.03
2022-07-28T04:33:32.668Z,1.57
2022-07-28T04:36:02.223Z,1.37
2022-07-28T04:38:30.856Z,1.30
2022-07-28T04:41:00.329Z,1.42
2022-07-28T04:43:28.519Z,1.50
2022-07-28T04:45:56.767Z,1.70
2022-07-28T04:48:25.778Z,1.87
2022-07-28T04:50:54.025Z,1.63
2022-07-28T04:53:23.009Z,1.33
2022-07-28T04:55:54.782Z,1.70
2022-07-28T04:58:25.343Z,1.77
2022-07-28T05:00:54.080Z,1.60
2022-07-28T05:03:22.488Z,1.77
2022-07-28T05:05:54.936Z,1.60
2022-07-28T05:08:26.208Z,1.33
2022-07-28T05:10:56.944Z,1.67
2022-07-28T05:13:33.263Z,1.77
2022-07-28T05:16:10.464Z,1.53
2022-07-28T05:18:38.861Z,1.80
2022-07-28T05:21:07.032Z,1.80
2022-07-28T05:23:35.707Z,1.63
2022-07-28T05:26:04.735Z,1.50
2022-07-28T05:28:34.353Z,1.63
2022-07-28T05:31:03.324Z,1.40
2022-07-28T05:33:32.126Z,1.80
2022-07-28T05:36:01.108Z,1.60
2022-07-28T05:38:31.498Z,1.42
2022-07-28T05:41:00.343Z,1.40
2022-07-28T05:43:28.467Z,1.83
2022-07-28T05:45:58.176Z,1.35
2022-07-28T05:48:26.597Z,1.25
2022-07-28T05:50:55.404Z,1.08
2022-07-28T05:53:23.611Z,1.40
2022-07-28T05:55:59.671Z,1.70
2022-07-28T05:58:32.048Z,2.72
2022-07-28T06:01:02.999Z,1.60
2022-07-28T06:03:39.982Z,1.80
2022-07-28T06:06:16.105Z,1.42
2022-07-28T06:08:46.904Z,1.52
2022-07-28T06:11:21.683Z,1.70
2022-07-28T06:13:52.854Z,1.67
2022-07-28T06:16:24.043Z,1.60
2022-07-28T06:18:52.771Z,1.88
2022-07-28T06:21:24.719Z,1.50
2022-07-28T06:23:53.280Z,1.70
2022-07-28T06:26:23.806Z,1.60
2022-07-28T06:28:52.942Z,2.00
2022-07-28T06:31:22.570Z,1.80
2022-07-28T06:33:51.454Z,1.70
2022-07-28T06:36:19.640Z,1.42
2022-07-28T06:38:49.138Z,2.00
2022-07-28T06:41:17.564Z,1.70
2022-07-28T06:43:46.050Z,1.80
2022-07-28T06:46:18.612Z,1.58
2022-07-28T06:48:49.706Z,1.60
2022-07-28T06:51:20.002Z,1.63
2022-07-28T06:53:49.586Z,2.00
2022-07-28T06:56:19.676Z,1.90
2022-07-28T06:58:49.950Z,2.10
2022-07-28T07:01:18.497Z,1.60
2022-07-28T07:03:47.283Z,3.10
2022-07-28T07:06:16.861Z,1.67
2022-07-28T07:08:45.309Z,1.70
2022-07-28T07:11:13.423Z,1.63
2022-07-28T07:13:42.003Z,1.42
2022-07-28T07:16:10.221Z,1.98
2022-07-28T07:18:38.377Z,1.80
2022-07-28T07:21:06.529Z,1.88
2022-07-28T07:23:36.416Z,1.75
2022-07-28T07:26:05.596Z,1.42
2022-07-28T07:28:34.893Z,1.60
2022-07-28T07:31:03.548Z,1.70
2022-07-28T07:33:32.293Z,2.03
2022-07-28T07:36:00.536Z,2.28
2022-07-28T07:38:29.401Z,2.03
2022-07-28T07:40:59.313Z,1.70
2022-07-28T07:43:27.616Z,1.80
2022-07-28T07:45:55.728Z,1.50
2022-07-28T07:48:23.947Z,1.80
2022-07-28T07:50:54.151Z,1.88
2022-07-28T07:53:22.888Z,2.30
2022-07-28T07:55:51.578Z,2.25
2022-07-28T07:58:21.411Z,1.90
2022-07-28T08:00:49.530Z,2.05
2022-07-28T08:03:22.374Z,1.90
2022-07-28T08:05:54.805Z,2.03
2022-07-28T08:08:24.640Z,2.20
2022-07-28T08:10:54.252Z,2.40
2022-07-28T08:13:24.364Z,1.90
2022-07-28T08:15:52.830Z,2.00
2022-07-28T08:18:21.487Z,2.50
2022-07-28T08:20:49.599Z,1.90
2022-07-28T08:23:21.579Z,2.47
2022-07-28T08:25:52.489Z,2.33
2022-07-28T08:28:20.755Z,2.33
2022-07-28T08:30:51.244Z,2.30
2022-07-28T08:33:22.232Z,2.38
2022-07-28T08:35:50.877Z,2.47
2022-07-28T08:38:20.143Z,2.20
2022-07-28T08:40:53.321Z,2.72
2022-07-28T08:43:33.382Z,2.17
2022-07-28T08:46:07.436Z,3.05
2022-07-28T08:48:38.179Z,2.80
2022-07-28T08:51:09.416Z,2.60
2022-07-28T08:53:40.494Z,2.45
2022-07-28T08:56:13.445Z,2.30
2022-07-28T08:58:41.953Z,2.17
2022-07-28T09:01:12.349Z,2.22
2022-07-28T09:03:40.943Z,2.35
2022-07-28T09:06:09.578Z,2.60
2022-07-28T09:08:38.680Z,2.25
2022-07-28T09:11:08.349Z,2.00
2022-07-28T09:13:38.415Z,2.85
2022-07-28T09:16:07.464Z,2.35
2022-07-28T09:18:37.536Z,2.90
2022-07-28T09:21:05.898Z,2.47
2022-07-28T09:23:44.725Z,2.83
2022-07-28T09:26:13.920Z,2.90
2022-07-28T09:28:51.244Z,2.38
2022-07-28T09:31:20.952Z,2.70
2022-07-28T09:34:02.869Z,2.20
2022-07-28T09:36:39.046Z,2.30
2022-07-28T09:39:08.184Z,2.53
2022-07-28T09:41:49.177Z,2.40
2022-07-28T09:44:20.621Z,2.70
2022-07-28T09:46:49.135Z,2.28
2022-07-28T09:49:19.021Z,2.65
2022-07-28T09:52:02.095Z,2.58
2022-07-28T09:54:30.626Z,2.50
2022-07-28T09:56:59.295Z,3.00
2022-07-28T09:59:40.304Z,2.95
2022-07-28T10:02:09.410Z,3.05
2022-07-28T10:04:43.341Z,2.38
2022-07-28T10:07:17.007Z,3.13
2022-07-28T10:09:56.474Z,3.25
2022-07-28T10:12:27.037Z,3.00
2022-07-28T10:14:59.429Z,2.97
2022-07-28T10:17:30.658Z,2.80
2022-07-28T10:20:03.392Z,3.40
2022-07-28T10:22:42.743Z,4.47
2022-07-28T10:25:13.728Z,3.40
2022-07-28T10:27:43.776Z,3.67
2022-07-28T10:30:14.931Z,3.50
2022-07-28T10:32:45.600Z,3.17
2022-07-28T10:35:18.980Z,3.03
2022-07-28T10:37:55.397Z,2.70
2022-07-28T10:40:30.159Z,3.00
2022-07-28T10:43:00.876Z,2.80
2022-07-28T10:48:20.645Z,3.40
2022-07-28T10:50:54.798Z,2.70
2022-07-28T10:53:39.609Z,2.80
2022-07-28T10:56:18.750Z,3.03
2022-07-28T10:59:00.250Z,3.03
2022-07-28T11:01:53.364Z,3.30
2022-07-28T11:04:59.166Z,2.95
2022-07-28T11:07:40.189Z,2.90
2022-07-28T11:10:18.929Z,3.17
2022-07-28T11:12:49.510Z,3.25
2022-07-28T11:15:33.547Z,3.08
2022-07-28T11:18:07.036Z,3.10
2022-07-28T11:21:16.334Z,2.55
2022-07-28T11:23:54.788Z,3.00
2022-07-28T11:26:46.151Z,2.90
2022-07-28T11:29:19.339Z,3.25
2022-07-28T11:32:04.928Z,2.80
2022-07-28T11:35:08.807Z,3.00
2022-07-28T11:38:10.623Z,2.95
2022-07-28T11:40:43.178Z,2.90
2022-07-28T11:43:37.670Z,2.75
2022-07-28T11:46:37.516Z,3.10
2022-07-28T11:49:22.214Z,2.47
2022-07-28T11:52:15.552Z,2.30
2022-07-28T11:54:54.806Z,2.67
2022-07-28T11:57:28.494Z,2.58
2022-07-28T12:00:03.441Z,2.25
2022-07-28T12:02:36.686Z,2.67
2022-07-28T12:05:13.216Z,2.50
2022-07-28T12:07:48.698Z,2.33
2022-07-28T12:10:53.839Z,2.78
2022-07-28T12:13:29.293Z,2.40
2022-07-28T12:15:58.294Z,2.15
2022-07-28T12:18:26.647Z,2.47
2022-07-28T12:20:55.875Z,2.47
2022-07-28T12:23:44.155Z,2.60
2022-07-28T12:26:31.776Z,2.60
2022-07-28T12:29:02.533Z,2.00
2022-07-28T12:31:37.861Z,2.53
2022-07-28T12:34:09.844Z,2.53
2022-07-28T12:36:39.706Z,2.60
2022-07-28T12:39:12.910Z,2.65
2022-07-28T12:41:41.477Z,2.28
2022-07-28T12:44:12.309Z,2.08
2022-07-28T12:46:49.139Z,2.47
2022-07-28T12:49:22.707Z,2.88
2022-07-28T12:51:51.400Z,2.33
2022-07-28T12:54:19.578Z,2.83
2022-07-28T12:56:49.943Z,2.40
2022-07-28T12:59:21.169Z,2.25
2022-07-28T13:01:52.446Z,2.33
2022-07-28T13:04:41.739Z,2.50
2022-07-28T13:07:13.527Z,2.33
2022-07-28T13:09:50.189Z,2.47
2022-07-28T13:12:30.927Z,2.55
2022-07-28T13:15:03.401Z,2.67
2022-07-28T13:17:51.133Z,2.92
2022-07-28T13:20:20.697Z,2.90
2022-07-28T13:22:49.004Z,2.60
2022-07-28T13:25:18.758Z,2.63
2022-07-28T13:27:52.227Z,2.38
2022-07-28T13:30:24.815Z,2.90
2022-07-28T13:32:54.645Z,2.60
2022-07-28T13:35:22.967Z,1.90
2022-07-28T13:37:51.272Z,2.55
2022-07-28T13:40:19.578Z,2.45
2022-07-28T13:42:53.254Z,2.42
2022-07-28T13:45:30.255Z,2.20
2022-07-28T13:47:58.614Z,2.60
2022-07-28T13:50:27.296Z,2.83
2022-07-28T13:52:55.670Z,2.40
2022-07-28T13:55:24.023Z,2.75
2022-07-28T13:57:56.391Z,2.63
2022-07-28T14:00:26.610Z,2.45
2022-07-28T14:02:55.055Z,2.50
2022-07-28T14:05:23.312Z,2.60
2022-07-28T14:07:51.671Z,2.50
2022-07-28T14:10:19.966Z,2.65
2022-07-28T14:12:54.885Z,2.20
2022-07-28T14:15:23.598Z,2.30
2022-07-28T14:17:53.525Z,3.00
2022-07-28T14:20:21.804Z,5.90
2022-07-28T14:22:52.007Z,5.10
2022-07-28T14:25:21.660Z,4.50
2022-07-28T14:27:51.130Z,4.15
2022-07-28T14:30:20.947Z,3.08
2022-07-28T14:32:49.393Z,2.75
2022-07-28T14:35:20.092Z,3.10
2022-07-28T14:40:39.539Z,8.98
2022-07-28T14:43:09.216Z,9.48
2022-07-28T14:46:00.432Z,6.32
2022-07-28T14:48:26.557Z,3.22
2022-07-28T14:50:57.106Z,3.05
2022-07-28T14:53:27.780Z,3.00
2022-07-28T14:55:56.450Z,2.78
2022-07-28T14:58:25.727Z,3.03
2022-07-28T15:00:54.470Z,2.90
2022-07-28T15:03:22.846Z,2.25
2022-07-28T15:05:51.098Z,3.00
2022-07-28T15:08:20.587Z,2.60
2022-07-28T15:10:54.635Z,2.60
2022-07-28T15:13:23.341Z,2.30
2022-07-28T15:15:51.712Z,2.43
2022-07-28T15:18:20.009Z,2.20
2022-07-28T15:20:49.716Z,2.50
2022-07-28T15:23:18.218Z,2.60
2022-07-28T15:25:47.833Z,2.00
2022-07-28T15:28:17.842Z,2.70
2022-07-28T15:30:51.442Z,2.38
2022-07-28T15:33:21.250Z,2.63
2022-07-28T15:35:56.560Z,2.67
2022-07-28T15:38:29.721Z,2.40
2022-07-28T15:41:01.950Z,2.47
2022-07-28T15:43:33.067Z,2.30
2022-07-28T15:46:09.838Z,2.58
2022-07-28T15:48:38.573Z,2.45
2022-07-28T15:51:07.391Z,2.47
2022-07-28T15:53:36.639Z,2.58
2022-07-28T15:56:07.027Z,2.70
2022-07-28T15:58:35.705Z,2.47
2022-07-28T16:01:04.904Z,2.60
2022-07-28T16:03:33.308Z,2.22
2022-07-28T16:06:01.702Z,2.30
2022-07-28T16:08:31.656Z,2.47
2022-07-28T16:10:59.807Z,2.40
2022-07-28T16:13:36.101Z,2.90
2022-07-28T16:16:08.365Z,2.28
2022-07-28T16:18:39.824Z,1.77
2022-07-28T16:21:09.349Z,2.70
2022-07-28T16:23:38.438Z,2.40
2022-07-28T16:26:09.147Z,2.53
2022-07-28T16:28:38.969Z,2.30
2022-07-28T16:31:08.220Z,2.80
2022-07-28T16:33:36.611Z,2.35
2022-07-28T16:36:05.683Z,2.28
2022-07-28T16:38:33.934Z,2.45
2022-07-28T16:41:02.022Z,2.38
2022-07-28T16:43:30.324Z,2.60
2022-07-28T16:46:00.412Z,2.40
2022-07-28T16:48:28.798Z,2.90
2022-07-28T16:50:57.214Z,2.30
2022-07-28T16:53:25.338Z,2.70
2022-07-28T16:55:53.851Z,2.72
2022-07-28T16:58:22.751Z,2.58
2022-07-28T17:00:51.540Z,2.90
2022-07-28T17:03:21.481Z,3.13
2022-07-28T17:05:50.369Z,2.60
2022-07-28T17:08:19.264Z,2.67
2022-07-28T17:10:48.095Z,2.80
2022-07-28T17:13:17.095Z,2.70
2022-07-28T17:15:45.299Z,2.58
2022-07-28T17:18:13.906Z,2.70
2022-07-28T17:20:48.543Z,2.72
2022-07-28T17:23:16.937Z,3.17
2022-07-28T17:26:16.165Z,2.58
2022-07-28T17:28:34.711Z,2.30
2022-07-28T17:31:03.406Z,2.28
2022-07-28T17:33:32.677Z,2.40
2022-07-28T17:36:02.746Z,2.60
2022-07-28T17:38:33.219Z,2.30
2022-07-28T17:41:03.781Z,2.45
2022-07-28T17:43:33.197Z,2.33
2022-07-28T17:46:02.909Z,2.45
2022-07-28T17:48:37.145Z,2.50
2022-07-28T17:51:07.183Z,2.42
2022-07-28T17:53:38.323Z,2.03
2022-07-28T17:56:08.664Z,2.22
2022-07-28T17:58:37.355Z,2.63
2022-07-28T18:01:12.319Z,2.38
2022-07-28T18:03:57.059Z,2.33
2022-07-28T18:06:34.105Z,2.30
2022-07-28T18:09:05.999Z,2.38
2022-07-28T18:11:56.055Z,2.50
2022-07-28T18:14:28.383Z,2.58
2022-07-28T18:16:57.836Z,2.35
2022-07-28T18:19:26.323Z,2.35
2022-07-28T18:21:57.138Z,2.38
2022-07-28T18:24:26.280Z,2.40
2022-07-28T18:26:55.009Z,2.47
2022-07-28T18:29:24.926Z,2.60
2022-07-28T18:31:53.799Z,3.20
2022-07-28T18:34:24.901Z,2.83
2022-07-28T18:36:55.763Z,2.47
2022-07-28T18:39:23.951Z,2.58
2022-07-28T18:41:55.462Z,2.50
2022-07-28T18:44:23.571Z,2.50
2022-07-28T18:46:52.520Z,2.78
2022-07-28T18:49:21.705Z,2.38
2022-07-28T18:51:50.382Z,2.50
2022-07-28T18:54:27.960Z,2.58
2022-07-28T18:56:57.068Z,2.65
2022-07-28T18:59:25.857Z,2.90
2022-07-28T19:01:54.395Z,2.17
2022-07-28T19:04:23.103Z,2.55
2022-07-28T19:06:52.193Z,2.50
2022-07-28T19:09:22.426Z,2.40
2022-07-28T19:11:50.641Z,2.90
2022-07-28T19:14:19.360Z,3.08
2022-07-28T19:16:48.124Z,2.63
2022-07-28T19:19:16.300Z,2.40
2022-07-28T19:21:44.619Z,2.40
2022-07-28T19:24:13.843Z,2.13
2022-07-28T19:26:47.300Z,3.03
2022-07-28T19:29:15.464Z,2.53
2022-07-28T19:31:43.863Z,3.22
2022-07-28T19:34:12.217Z,3.53
2022-07-28T19:36:41.592Z,3.20
2022-07-28T19:39:10.920Z,3.40
2022-07-28T19:41:39.131Z,3.00
2022-07-28T19:44:08.611Z,3.30
2022-07-28T19:46:36.865Z,2.83
2022-07-28T19:49:07.942Z,2.97
2022-07-28T19:51:36.791Z,2.97
2022-07-28T19:54:05.432Z,3.35
2022-07-28T19:56:33.834Z,2.42
2022-07-28T19:59:02.602Z,2.95
2022-07-28T20:01:32.987Z,2.58
2022-07-28T20:04:05.154Z,2.45
2022-07-28T20:06:34.628Z,2.25
2022-07-28T20:09:04.262Z,2.70
2022-07-28T20:11:33.737Z,2.58
2022-07-28T20:14:03.030Z,2.95
2022-07-28T20:16:32.767Z,2.63
2022-07-28T20:19:01.456Z,2.70
2022-07-28T20:21:29.818Z,2.58
2022-07-28T20:24:08.346Z,2.72
2022-07-28T20:26:36.540Z,2.80
2022-07-28T20:29:05.958Z,2.20
2022-07-28T20:31:36.829Z,2.58
2022-07-28T20:34:07.081Z,3.03
2022-07-28T20:36:36.015Z,2.90
2022-07-28T20:39:21.030Z,2.78
2022-07-28T20:41:53.256Z,2.85
2022-07-28T20:44:29.630Z,2.90
2022-07-28T20:47:00.749Z,2.88
2022-07-28T20:49:29.224Z,4.28
2022-07-28T20:51:58.653Z,2.67
2022-07-28T20:54:27.491Z,2.95
2022-07-28T20:56:56.074Z,2.40
2022-07-28T20:59:27.637Z,2.90
2022-07-28T21:01:58.013Z,2.92
2022-07-28T21:04:27.573Z,2.72
2022-07-28T21:07:02.067Z,3.22
2022-07-28T21:09:32.172Z,2.72
2022-07-28T21:12:00.473Z,3.17
2022-07-28T21:14:28.604Z,3.17
2022-07-28T21:16:57.436Z,2.80
2022-07-28T21:19:27.025Z,3.10
2022-07-28T21:21:55.572Z,2.78
2022-07-28T21:24:23.865Z,2.53
2022-07-28T21:26:53.843Z,2.63
2022-07-28T21:32:03.850Z,2.72
2022-07-28T21:34:35.773Z,2.58
2022-07-28T21:37:05.832Z,2.67
2022-07-28T21:39:35.780Z,3.00
2022-07-28T21:42:07.784Z,3.25
2022-07-28T21:44:37.709Z,2.75
2022-07-28T21:47:06.410Z,2.47
2022-07-28T21:49:36.720Z,2.83
2022-07-28T21:52:05.384Z,2.70
2022-07-28T21:54:33.950Z,2.95
2022-07-28T21:57:02.437Z,2.28
2022-07-28T21:59:30.616Z,2.67
2022-07-28T22:01:58.758Z,2.50
2022-07-28T22:04:26.990Z,2.70
2022-07-28T22:06:56.572Z,2.88
2022-07-28T22:09:25.361Z,2.88
2022-07-28T22:11:53.764Z,2.80
2022-07-28T22:14:21.958Z,2.70
2022-07-28T22:16:50.532Z,2.50
2022-07-28T22:19:18.765Z,2.53
2022-07-28T22:21:47.851Z,2.70
2022-07-28T22:24:18.140Z,2.95
2022-07-28T22:26:46.596Z,3.10
2022-07-28T22:29:15.397Z,3.08
2022-07-28T22:31:44.096Z,2.65
2022-07-28T22:34:12.829Z,2.78
2022-07-28T22:36:41.480Z,2.80
2022-07-28T22:39:09.649Z,2.97
2022-07-28T22:41:39.563Z,3.03
2022-07-28T22:44:10.159Z,3.13
2022-07-28T22:46:39.259Z,2.72
2022-07-28T22:49:07.486Z,3.10
2022-07-28T22:51:35.738Z,2.88
2022-07-28T22:54:04.691Z,3.75
2022-07-28T22:56:36.325Z,3.10
2022-07-28T22:59:07.675Z,3.42
2022-07-28T23:01:37.199Z,3.00
2022-07-28T23:04:05.879Z,3.00
2022-07-28T23:06:36.308Z,3.13
2022-07-28T23:09:05.060Z,3.10
2022-07-28T23:11:33.156Z,3.00
2022-07-28T23:14:01.605Z,2.95
2022-07-28T23:16:31.554Z,3.03
2022-07-28T23:19:00.385Z,2.88
2022-07-28T23:21:28.828Z,2.95
2022-07-28T23:23:57.194Z,3.00
2022-07-28T23:26:25.348Z,3.13
2022-07-28T23:28:54.121Z,2.47
2022-07-28T23:31:22.588Z,3.10
2022-07-28T23:33:56.186Z,3.05
2022-07-28T23:36:27.400Z,2.97
2022-07-28T23:38:57.551Z,2.67
2022-07-28T23:41:27.074Z,2.80
2022-07-28T23:43:55.998Z,2.80
2022-07-28T23:46:24.898Z,2.60
2022-07-28T23:48:54.524Z,2.25
2022-07-28T23:51:31.938Z,2.78
2022-07-28T23:54:11.209Z,2.70
2022-07-28T23:56:43.108Z,2.50
2022-07-28T23:59:14.118Z,2.58
